EW2997 Weather Reports


Display with metric or nautical units.
time (UTC)temp
F
wind
direction
speed
MPH
gust
MPH
rain 1hr
in
rain 24hr
in
rain mn
in
humidity
%
barometer
mb
20240524110816 61 192 0.0 0.0 0.00 0.00 0.00 98 1016.7
20240524103815 60 150 0.0 0.0 0.00 0.00 0.00 98 1016.7
20240524100813 59 168 0.0 0.0 0.00 0.00 0.00 98 1016.3
20240524093812 59 162 0.0 0.0 0.00 0.00 0.00 98 1016.0
20240524090812 60 168 0.0 0.0 0.00 0.00 0.00 98 1016.0
20240524083811 60 118 0.0 0.0 0.00 0.00 0.00 98 1016.0
20240524080810 59 170 0.0 0.0 0.00 0.00 0.00 97 1016.0
20240524073808 59 110 0.0 0.0 0.00 0.00 0.00 97 1016.3
20240524070808 59 156 0.0 0.0 0.00 0.00 0.00 97 1016.0
20240524063807 60 162 0.0 0.0 0.00 0.00 0.00 97 1016.0
20240524060805 60 204 0.0 0.0 0.00 0.00 0.00 96 1016.0
20240524053804 60 114 2.0 2.0 0.00 0.00 0.00 96 1016.3
20240524050804 61 158 0.0 0.0 0.00 0.00 0.00 95 1016.3
20240524043804 61 177 0.0 0.0 0.00 0.00 0.00 95 1016.7
20240524040803 62 149 0.0 0.0 0.00 0.00 0.00 95 1017.0
20240524033801 63 144 0.0 0.0 0.00 0.09 0.09 94 1016.7
20240524030800 64 182 0.0 0.0 0.00 0.09 0.09 92 1017.0
20240524023759 65 104 0.0 0.0 0.00 0.09 0.09 90 1017.0
20240524020758 65 109 0.0 0.0 0.00 0.09 0.09 90 1016.7
20240524013758 65 145 0.0 0.0 0.00 0.09 0.09 90 1016.3
20240524010758 67 145 0.0 0.0 0.00 0.09 0.09 89 1016.0
20240524003758 69 168 0.0 0.0 0.00 0.09 0.09 87 1016.0
20240524000757 72 115 0.0 0.0 0.00 0.09 0.09 82 1016.0
20240523233756 76 163 0.0 0.0 0.00 0.09 0.09 67 1016.0
20240523230755 79 210 0.0 0.0 0.00 0.09 0.09 65 1016.0
20240523223755 80 280 2.0 2.0 0.00 0.09 0.09 56 1016.0
20240523220755 84 180 0.0 0.0 0.00 0.09 0.09 54 1016.0
20240523213755 82 274 0.0 0.0 0.00 0.09 0.09 60 1016.0
20240523210754 80 273 2.0 2.0 0.00 0.09 0.09 61 1016.3
20240523203752 80 276 3.0 3.0 0.00 0.09 0.09 62 1016.3
20240523200751 81 264 3.0 3.0 0.00 0.09 0.09 63 1016.7
20240523193751 78 205 3.0 3.0 0.00 0.09 0.09 68 1017.0
20240523190751 78 281 4.0 4.0 0.00 0.09 0.09 70 1017.4
20240523183749 78 174 4.0 4.0 0.00 0.09 0.09 68 1017.4
20240523180750 79 198 0.0 0.0 0.00 0.09 0.09 65 1017.0
20240523173749 78 225 4.0 4.0 0.00 0.09 0.09 69 1017.7
20240523170749 77 177 0.0 0.0 0.00 0.09 0.09 71 1018.0
20240523163748 77 258 2.0 2.0 0.00 0.09 0.09 74 1018.0
20240523160748 74 234 0.0 0.0 0.00 0.09 0.09 77 1018.0
20240523153748 73 234 0.0 0.0 0.00 0.09 0.09 82 1018.4
20240523150748 73 252 2.0 2.0 0.00 0.09 0.09 81 1018.4
20240523143748 70 179 0.0 0.0 0.00 0.09 0.09 87 1018.4
20240523140747 70 234 4.0 4.0 0.00 0.09 0.09 87 1018.0
20240523133747 69 163 0.0 0.0 0.00 0.09 0.09 89 1018.4
20240523130747 68 258 0.0 0.0 0.00 0.09 0.09 93 1018.0
20240523123747 68 253 2.0 2.0 0.00 0.09 0.09 91 1018.0
20240523120747 67 67 0.0 0.0 0.00 0.09 0.09 95 1017.4
20240523113746 66 214 0.0 0.0 0.07 0.09 0.09 96 1017.0